Latest Weather Observations for Yunta

IDS60801

Issued at 8:31 am CDT Thursday 19 January 2017 (issued every 30 minutes, with the page automatically refreshed every 10 minutes)

About weather observations | Map of weather stations | Latest weather observations for SA | Other Formats
Station Details ID: 020062 Name: YUNTA AIRSTRIP Lat: -32.57 Lon: 139.56 Height: 300.0 m
Data from the previous 72 hours. | See also: Recent months at Yunta
Date/Time
CDT
Temp
°C
App
Temp
°C
Dew
Point
°C
Rel
Hum
%
Delta-T
°C
Wind Press
QNH
hPa
Press
MSL
hPa
Rain since
9am
mm
Dir  Spd
km/h
Gust
km/h
Spd
kts
Gust
kts
19/08:00am 21.7 18.3 6.0 36 8.0 SE 13 20 7 11 1010.3 1008.7 0.0
19/07:30am 21.2 17.7 5.6 36 7.9 SSE 13 19 7 10 1010.3 1008.7 0.0
19/07:00am 20.6 18.0 6.2 39 7.3 SSE 9 13 5 7 1010.6 1009.0 0.0
19/06:30am 20.1 17.5 6.1 40 7.1 SE 9 15 5 8 1010.5 1008.9 0.0
19/06:00am 20.0 17.3 5.6 39 7.2 SSE 9 11 5 6 1010.4 1008.8 0.0
19/05:30am 20.4 17.3 5.6 38 7.4 SSE 11 15 6 8 1010.4 1008.8 0.0
19/05:00am 20.7 17.6 5.5 37 7.6 SSE 11 15 6 8 1010.4 1008.8 0.0
19/04:30am 21.0 17.9 5.4 36 7.9 SSE 11 15 6 8 1010.3 1008.7 0.0
19/04:00am 21.5 18.0 5.4 35 8.1 SE 13 20 7 11 1010.5 1008.9 0.0
19/03:30am 22.0 18.9 5.4 34 8.4 SSE 11 19 6 10 1010.6 1009.0 0.0
19/03:00am 22.7 18.8 5.2 32 8.9 SSE 15 19 8 10 1010.7 1009.1 0.0
19/02:30am 23.1 19.1 5.1 31 9.1 SSE 15 22 8 12 1011.1 1009.5 0.0
19/02:00am 23.5 19.5 4.9 30 9.4 SSE 15 20 8 11 1011.2 1009.6 0.0
19/01:30am 24.1 19.7 5.0 29 9.7 SSE 17 24 9 13 1011.5 1009.9 0.0
19/01:00am 24.6 20.3 5.4 29 9.9 SSE 17 26 9 14 1011.6 1010.0 0.0
19/12:30am 25.1 20.5 5.8 29 10.0 SSE 19 26 10 14 1011.8 1010.2 0.0
19/12:00am 25.7 21.5 5.8 28 10.4 SSE 17 24 9 13 1012.2 1010.5 0.0
 
Date/Time
CDT
Temp
°C
App
Temp
°C
Dew
Point
°C
Rel
Hum
%
Delta-T
°C
Wind Press
QNH
hPa
Press
MSL
hPa
Rain since
9am
mm
Dir  Spd
km/h
Gust
km/h
Spd
kts
Gust
kts
18/11:30pm 26.4 21.7 5.9 27 10.8 SSE 20 32 11 17 1012.1 1010.4 0.0
18/11:00pm 27.1 22.2 7.0 28 10.8 SSE 22 33 12 18 1011.7 1010.1 0.0
18/10:30pm 27.7 22.2 7.5 28 11.0 SE 26 35 14 19 1011.6 1010.0 0.0
18/10:00pm 28.3 23.4 8.6 29 10.9 SSE 24 33 13 18 1011.6 1010.0 0.0
18/09:30pm 28.9 23.9 9.6 30 10.9 SSE 26 37 14 20 1011.2 1009.6 0.0
18/09:00pm 30.1 26.4 10.1 29 11.5 SSE 20 30 11 16 1010.9 1009.3 0.0
18/08:30pm 30.8 28.2 10.7 29 11.7 SE 15 20 8 11 1010.5 1008.9 0.0
18/08:00pm 31.3 28.8 11.1 29 11.8 SE 15 22 8 12 1010.5 1008.9 0.0
18/07:30pm 31.2 28.9 11.6 30 11.6 SSE 15 19 8 10 1010.2 1008.6 0.0
18/07:00pm 31.6 30.0 11.4 29 11.9 SSE 11 15 6 8 1010.6 1009.0 0.0
18/06:30pm 31.7 28.9 11.5 29 11.9 SSE 17 24 9 13 1010.1 1008.5 0.0
18/06:00pm 31.5 28.7 11.3 29 11.9 SSE 17 28 9 15 1009.8 1008.1 0.0
18/05:30pm 31.4 27.2 11.2 29 11.9 SSE 24 32 13 17 1009.8 1008.1 0.0
18/05:00pm 34.2 30.8 11.4 25 13.6 SSE 20 32 11 17 1009.7 1008.0 0.0
18/04:30pm 33.9 32.0 11.7 26 13.3 SE 13 22 7 12 1010.0 1008.4 0.0
18/04:00pm 33.5 31.5 11.4 26 13.1 SE 13 20 7 11 1010.1 1008.5 0.0
18/03:30pm 33.4 30.6 11.3 26 13.1 SE 17 28 9 15 1010.4 1008.8 0.0
18/03:00pm 32.6 31.3 11.2 27 12.6 ESE 9 19 5 10 1011.0 1009.4 0.0
18/02:30pm 31.9 30.2 11.1 28 12.2 SSE 11 24 6 13 1011.5 1009.9 0.0
18/02:00pm 30.9 28.3 10.8 29 11.7 SE 15 24 8 13 1012.1 1010.4 0.0
18/01:30pm 30.4 28.0 11.4 31 11.1 SE 15 26 8 14 1012.6 1010.9 0.0
18/01:00pm 29.6 26.4 11.2 32 10.7 SE 19 28 10 15 1012.9 1011.3 0.0
18/12:30pm 29.6 25.8 11.2 32 10.7 SE 22 28 12 15 1013.1 1011.5 0.0
18/12:00pm 27.3 23.5 11.3 37 9.2 SE 22 33 12 18 1013.3 1011.7 0.0
18/11:30am 26.4 22.9 12.1 41 8.3 SSE 22 35 12 19 1013.5 1011.9 0.0
18/11:00am 26.8 22.8 11.7 39 8.8 SSE 24 35 13 19 1013.3 1011.7 0.0
18/10:30am 25.9 21.8 11.6 40 8.2 SE 24 39 13 21 1013.3 1011.7 0.0
18/10:00am 25.4 21.6 11.2 41 8.1 SE 22 32 12 17 1013.3 1011.7 0.0
18/09:30am 25.0 21.8 11.2 42 7.9 SE 19 28 10 15 1013.4 1011.8 0.0
18/09:00am 22.6 19.2 10.7 47 6.7 SE 19 24 10 13 1013.4 1011.8 0.0
18/08:30am 22.3 19.8 11.1 49 6.3 SSE 15 20 8 11 1013.1 1011.5 0.0
18/08:00am 21.5 19.8 11.2 52 5.8 SSE 11 15 6 8 1012.9 1011.3 0.0
18/07:30am 20.3 18.4 11.8 58 4.8 S 13 19 7 10 1012.9 1011.3 0.0
18/07:00am 19.6 18.3 11.4 59 4.6 S 9 13 5 7 1012.6 1010.9 0.0
18/06:30am 19.1 17.7 10.9 59 4.5 S 9 15 5 8 1012.3 1010.6 0.0
18/06:00am 19.5 17.7 11.0 58 4.7 S 11 17 6 9 1011.6 1010.0 0.0
18/05:30am 20.0 17.9 11.0 56 5.0 SSE 13 19 7 10 1011.3 1009.7 0.0
18/05:00am 19.9 17.9 11.4 58 4.7 S 13 17 7 9 1011.1 1009.5 0.0
18/04:30am 20.5 18.0 10.9 54 5.3 S 15 22 8 12 1010.6 1009.0 0.0
18/04:00am 21.2 19.2 10.1 49 6.1 S 11 19 6 10 1010.1 1008.5 0.0
18/03:30am 21.9 19.3 9.4 45 6.8 S 13 17 7 9 1010.0 1008.4 0.0
18/03:00am 22.1 20.0 9.6 45 6.8 S 11 17 6 9 1010.1 1008.5 0.0
18/02:30am 22.8 19.8 9.2 42 7.4 S 15 22 8 12 1010.3 1008.7 0.0
18/02:00am 23.5 20.3 8.4 38 8.1 SSE 15 22 8 12 1010.9 1009.3 0.0
18/01:30am 24.1 20.2 8.5 37 8.5 S 19 22 10 12 1011.2 1009.6 0.0
18/01:00am 24.3 20.5 9.1 38 8.3 SSE 19 30 10 16 1011.4 1009.8 0.0
18/12:30am 26.1 20.6 7.7 31 10.0 S 26 43 14 23 1011.0 1009.4 0.0
18/12:01am 29.2 24.4 4.6 21 12.8 S 19 48 10 26 1009.7 1008.0 0.0
18/12:00am 28.9 24.9 5.1 22 12.5 S 15 44 8 24 1009.7 1008.0 0.0
 
Date/Time
CDT
Temp
°C
App
Temp
°C
Dew
Point
°C
Rel
Hum
%
Delta-T
°C
Wind Press
QNH
hPa
Press
MSL
hPa
Rain since
9am
mm
Dir  Spd
km/h
Gust
km/h
Spd
kts
Gust
kts
17/11:30pm 26.7 25.9 6.7 28 10.7 CALM 0 0 0 0 1008.7 1007.0 0.0
17/11:00pm 27.4 25.9 5.1 24 11.6 ENE 2 7 1 4 1008.6 1006.9 0.0
17/10:30pm 29.2 27.7 3.2 19 13.3 CALM 0 0 0 0 1008.5 1006.8 0.0
17/10:00pm 30.6 28.8 1.0 15 14.6 CALM 0 0 0 0 1008.2 1006.6 0.0
17/09:30pm 31.1 28.3 2.3 16 14.6 W 6 7 3 4 1007.8 1006.2 0.0
17/09:00pm 33.0 30.4 0.9 13 16.1 WSW 4 6 2 3 1007.4 1005.8 0.0
17/08:30pm 35.3 31.7 0.4 11 17.7 WSW 9 11 5 6 1007.1 1005.5 0.0
17/08:00pm 38.6 34.2 0.1 9 19.7 WSW 13 19 7 10 1006.8 1005.1 0.0
17/07:30pm 40.0 35.5 -0.5 8 20.8 WNW 13 20 7 11 1006.4 1004.7 0.0
17/07:00pm 40.6 36.5 0.0 8 21.0 WNW 11 20 6 11 1006.2 1004.5 0.0
17/06:30pm 41.0 35.6 -1.6 7 21.6 W 17 24 9 13 1006.2 1004.5 0.0
17/06:00pm 41.0 35.0 -1.6 7 21.6 W 20 30 11 16 1006.2 1004.5 0.0
17/05:30pm 41.1 35.3 -1.5 7 21.7 WNW 19 32 10 17 1006.4 1004.7 0.0
17/05:00pm 41.7 36.7 -1.1 7 21.9 W 15 33 8 18 1006.5 1004.8 0.0
17/04:30pm 41.6 35.4 -3.2 6 22.3 W 20 32 11 17 1006.7 1005.0 0.0
17/04:00pm 41.7 34.4 -3.1 6 22.3 WNW 26 41 14 22 1006.9 1005.3 0.0
17/03:30pm 41.1 35.4 -3.6 6 22.0 NW 17 30 9 16 1007.2 1005.6 0.0
17/03:00pm 40.7 33.3 -3.9 6 21.8 NW 26 39 14 21 1007.7 1006.1 0.0
17/02:30pm 40.5 33.7 -1.9 7 21.4 NW 24 39 13 21 1008.0 1006.4 0.0
17/02:11pm 40.5 32.9 -1.9 7 21.3 WNW 28 48 15 26 1008.3 1006.7 0.0
17/02:00pm 39.7 32.8 -2.5 7 20.9 WNW 24 39 13 21 1008.6 1006.9 0.0
17/01:30pm 39.2 32.6 -2.9 7 20.7 NW 22 43 12 23 1009.2 1007.5 0.0
17/01:00pm 38.8 31.5 -3.2 7 20.5 WNW 26 43 14 23 1009.4 1007.7 0.0
17/12:30pm 39.0 32.2 -5.1 6 20.9 NW 22 35 12 19 1009.5 1007.8 0.0
17/12:00pm 38.6 32.4 -3.3 7 20.4 NW 20 30 11 16 1009.7 1008.0 0.0
17/11:30am 37.4 31.6 -4.2 7 19.8 NNW 17 30 9 16 1010.0 1008.4 0.0
17/11:00am 37.0 31.0 -2.7 8 19.3 N 19 28 10 15 1010.2 1008.6 0.0
17/10:30am 36.3 30.7 -3.2 8 19.0 N 17 22 9 12 1010.6 1009.0 0.0
17/10:00am 35.1 30.5 -1.1 10 17.8 N 13 17 7 9 1010.7 1009.1 0.0
17/09:30am 32.7 29.7 0.7 13 16.0 NNE 6 7 3 4 1010.9 1009.3 0.0
17/09:00am 29.7 27.5 1.2 16 14.1 NNE 2 6 1 3 1010.9 1009.3 0.0
17/08:30am 26.6 25.0 2.5 21 11.9 CALM 0 0 0 0 1010.9 1009.3 0.0
17/08:00am 23.9 22.3 4.3 28 9.8 N 2 4 1 2 1010.7 1009.1 0.0
17/07:30am 21.0 19.2 5.4 36 7.8 SSW 4 6 2 3 1010.6 1009.0 0.0
17/07:00am 18.9 18.1 6.4 44 6.3 CALM 0 0 0 0 1010.3 1008.7 0.0
17/06:30am 17.4 15.9 5.0 44 6.0 W 2 6 1 3 1010.1 1008.5 0.0
17/06:00am 16.6 14.8 5.3 47 5.5 NNE 4 7 2 4 1009.6 1007.9 0.0
17/05:30am 19.5 17.4 1.9 31 8.2 E 2 4 1 2 1009.5 1007.8 0.0
17/05:00am 19.5 17.1 2.4 32 8.0 NE 4 6 2 3 1009.4 1007.7 0.0
17/04:30am 22.1 18.9 0.6 24 10.0 N 7 9 4 5 1009.4 1007.7 0.0
17/04:00am 22.1 19.5 1.2 25 9.8 NE 4 9 2 5 1009.5 1007.8 0.0
17/03:30am 21.4 19.2 1.1 26 9.4 NNE 2 6 1 3 1009.4 1007.7 0.0
17/03:00am 21.0 18.7 2.8 30 8.7 N 4 11 2 6 1009.6 1007.9 0.0
17/02:30am 19.4 18.2 4.7 38 7.2 CALM 0 0 0 0 1009.6 1007.9 0.0
17/02:00am 20.8 18.6 3.1 31 8.5 SSW 4 6 2 3 1009.8 1008.1 0.0
17/01:30am 24.1 22.0 1.7 23 10.7 NE 2 4 1 2 1009.8 1008.1 0.0
17/01:00am 23.0 20.7 0.2 22 10.5 NE 2 11 1 6 1009.9 1008.3 0.0
17/12:30am 23.5 21.1 2.4 25 10.2 NNW 4 7 2 4 1010.3 1008.7 0.0
17/12:00am 24.8 22.9 2.9 24 10.8 ESE 2 4 1 2 1010.4 1008.8 0.0
 
Date/Time
CDT
Temp
°C
App
Temp
°C
Dew
Point
°C
Rel
Hum
%
Delta-T
°C
Wind Press
QNH
hPa
Press
MSL
hPa
Rain since
9am
mm
Dir  Spd
km/h
Gust
km/h
Spd
kts
Gust
kts
16/11:30pm 24.3 21.6 2.5 24 10.6 NNW 6 9 3 5 1010.6 1009.0 0.0
16/11:00pm 26.1 23.4 2.7 22 11.6 NE 6 9 3 5 1010.6 1009.0 0.0
16/10:30pm 25.8 23.1 3.7 24 11.1 ENE 7 9 4 5 1010.7 1009.1 0.0
16/10:00pm 26.9 23.6 2.7 21 12.0 E 9 11 5 6 1010.6 1009.0 0.0
16/09:30pm 29.3 25.4 0.9 16 13.9 ESE 11 13 6 7 1010.3 1008.7 0.0
16/09:00pm 30.6 26.5 0.1 14 14.9 SE 11 13 6 7 1010.2 1008.6 0.0
16/08:30pm 31.9 28.2 0.1 13 15.6 SE 9 13 5 7 1009.9 1008.3 0.0
16/08:00pm 35.0 31.7 -1.1 10 17.7 SE 6 9 3 5 1009.6 1007.9 0.0
16/07:30pm 37.0 34.7 -2.7 8 19.3 CALM 0 0 0 0 1009.5 1007.8 0.0
16/07:00pm 37.8 35.3 -3.9 7 20.0 CALM 0 2 0 1 1009.5 1007.8 0.0
16/06:30pm 37.1 33.6 -2.6 8 19.4 ENE 6 11 3 6 1009.4 1007.7 0.0
16/06:00pm 37.8 35.1 -2.1 8 19.7 SSW 2 6 1 3 1009.3 1007.6 0.0
16/05:30pm 37.4 34.7 -2.4 8 19.5 SW 2 6 1 3 1009.5 1007.8 0.0
16/05:00pm 37.3 33.4 -4.2 7 19.7 WNW 7 13 4 7 1009.8 1008.1 0.0
16/04:30pm 37.7 34.7 -2.2 8 19.6 WNW 4 17 2 9 1010.1 1008.5 0.0
16/04:00pm 36.5 32.4 -3.0 8 19.0 NNE 9 17 5 9 1010.3 1008.7 0.0
16/03:30pm 36.6 32.5 -3.0 8 19.1 WNW 9 17 5 9 1010.3 1008.7 0.0
16/03:00pm 36.5 32.6 -1.4 9 18.7 NW 9 17 5 9 1010.6 1009.0 0.0
16/02:30pm 35.2 31.6 -2.4 9 18.1 NNW 7 15 4 8 1011.1 1009.5 0.0
16/02:00pm 35.1 31.8 -1.1 10 17.8 N 6 15 3 8 1011.4 1009.8 0.0
16/01:30pm 34.1 30.3 -0.5 11 17.1 N 9 17 5 9 1011.8 1010.2 0.0
16/01:00pm 33.7 30.4 0.4 12 16.6 N 7 15 4 8 1012.4 1010.7 0.0
16/12:30pm 33.1 29.6 1.0 13 16.1 NNW 9 15 5 8 1012.6 1010.9 0.0
16/12:00pm 31.5 28.2 -0.2 13 15.5 NNE 7 17 4 9 1013.0 1011.4 0.0
16/11:30am 30.8 28.0 2.1 16 14.5 E 6 11 3 6 1013.3 1011.7 0.0
16/11:00am 29.4 26.7 5.5 22 12.7 ENE 9 17 5 9 1013.8 1012.2 0.0
16/10:30am 27.1 25.3 7.0 28 10.8 E 6 9 3 5 1014.0 1012.4 0.0
16/10:00am 24.7 23.1 8.2 35 8.9 NE 6 7 3 4 1014.5 1012.9 0.0
16/09:30am 22.9 22.5 9.7 43 7.3 SSW 2 6 1 3 1014.7 1013.1 0.0
16/09:00am 20.8 20.3 10.6 52 5.6 SSW 4 6 2 3 1015.0 1013.4 0.0

Other Formats:

Comma delimited format used in spreadsheet applications
http://www.bom.gov.au/fwo/IDS60801/IDS60801.94684.axf

JavaScript Object Notation format (JSON) in row-major order
http://www.bom.gov.au/fwo/IDS60801/IDS60801.94684.json